sensor_id;sensor_type;location;lat;lon;timestamp;P1;durP1;ratioP1;P2;durP2;ratioP2
12048;SDS011;6085;49.452;8.502;2022-10-16T00:01:56;2.15;;;1.90;;
12048;SDS011;6085;49.452;8.502;2022-10-16T00:05:58;3.00;;;1.75;;
12048;SDS011;6085;49.452;8.502;2022-10-16T00:10:01;1.98;;;1.65;;
12048;SDS011;6085;49.452;8.502;2022-10-16T00:14:04;2.47;;;1.83;;
12048;SDS011;6085;49.452;8.502;2022-10-16T00:18:09;2.42;;;1.50;;
12048;SDS011;6085;49.452;8.502;2022-10-16T00:22:11;2.92;;;1.80;;
12048;SDS011;6085;49.452;8.502;2022-10-16T00:26:13;1.70;;;1.60;;
12048;SDS011;6085;49.452;8.502;2022-10-16T00:30:17;1.85;;;1.75;;
12048;SDS011;6085;49.452;8.502;2022-10-16T00:34:20;3.55;;;2.00;;
12048;SDS011;6085;49.452;8.502;2022-10-16T00:38:22;2.63;;;1.88;;
12048;SDS011;6085;49.452;8.502;2022-10-16T00:42:23;2.13;;;1.70;;
12048;SDS011;6085;49.452;8.502;2022-10-16T00:46:26;2.38;;;2.03;;
12048;SDS011;6085;49.452;8.502;2022-10-16T00:50:32;2.03;;;1.92;;
12048;SDS011;6085;49.452;8.502;2022-10-16T00:54:35;1.70;;;1.58;;
12048;SDS011;6085;49.452;8.502;2022-10-16T00:58:37;1.92;;;1.38;;
12048;SDS011;6085;49.452;8.502;2022-10-16T01:02:39;1.48;;;1.38;;
12048;SDS011;6085;49.452;8.502;2022-10-16T01:06:43;2.33;;;1.60;;
12048;SDS011;6085;49.452;8.502;2022-10-16T01:10:54;5.65;;;1.80;;
12048;SDS011;6085;49.452;8.502;2022-10-16T01:15:02;3.47;;;1.80;;
12048;SDS011;6085;49.452;8.502;2022-10-16T01:19:12;1.80;;;1.70;;
12048;SDS011;6085;49.452;8.502;2022-10-16T01:23:24;3.58;;;2.15;;
12048;SDS011;6085;49.452;8.502;2022-10-16T01:27:32;3.92;;;2.22;;
12048;SDS011;6085;49.452;8.502;2022-10-16T01:31:39;2.30;;;2.10;;
12048;SDS011;6085;49.452;8.502;2022-10-16T01:35:45;2.33;;;2.20;;
12048;SDS011;6085;49.452;8.502;2022-10-16T01:39:49;1.98;;;1.88;;
12048;SDS011;6085;49.452;8.502;2022-10-16T01:43:58;4.63;;;1.90;;
12048;SDS011;6085;49.452;8.502;2022-10-16T01:48:04;3.55;;;1.70;;
12048;SDS011;6085;49.452;8.502;2022-10-16T01:52:10;3.08;;;1.92;;
12048;SDS011;6085;49.452;8.502;2022-10-16T01:56:16;1.60;;;1.50;;
12048;SDS011;6085;49.452;8.502;2022-10-16T02:00:21;3.00;;;1.83;;
12048;SDS011;6085;49.452;8.502;2022-10-16T02:04:26;5.07;;;1.70;;
12048;SDS011;6085;49.452;8.502;2022-10-16T02:08:32;1.80;;;1.45;;
12048;SDS011;6085;49.452;8.502;2022-10-16T02:12:35;1.55;;;1.45;;
12048;SDS011;6085;49.452;8.502;2022-10-16T02:16:42;2.00;;;1.90;;
12048;SDS011;6085;49.452;8.502;2022-10-16T02:20:47;1.95;;;1.75;;
12048;SDS011;6085;49.452;8.502;2022-10-16T02:24:53;2.50;;;1.90;;
12048;SDS011;6085;49.452;8.502;2022-10-16T02:29:00;1.98;;;1.88;;
12048;SDS011;6085;49.452;8.502;2022-10-16T02:33:07;3.58;;;2.13;;
12048;SDS011;6085;49.452;8.502;2022-10-16T02:37:13;2.80;;;1.80;;
12048;SDS011;6085;49.452;8.502;2022-10-16T02:41:17;2.08;;;1.90;;
12048;SDS011;6085;49.452;8.502;2022-10-16T02:45:22;2.15;;;1.90;;
12048;SDS011;6085;49.452;8.502;2022-10-16T02:49:26;1.90;;;1.70;;
12048;SDS011;6085;49.452;8.502;2022-10-16T02:53:27;2.40;;;2.20;;
12048;SDS011;6085;49.452;8.502;2022-10-16T02:57:29;2.35;;;2.15;;
12048;SDS011;6085;49.452;8.502;2022-10-16T03:01:31;2.17;;;1.98;;
12048;SDS011;6085;49.452;8.502;2022-10-16T03:05:34;2.22;;;2.00;;
12048;SDS011;6085;49.452;8.502;2022-10-16T03:09:36;2.03;;;1.92;;
12048;SDS011;6085;49.452;8.502;2022-10-16T03:13:38;2.67;;;2.10;;
12048;SDS011;6085;49.452;8.502;2022-10-16T03:17:40;4.63;;;2.40;;
12048;SDS011;6085;49.452;8.502;2022-10-16T03:21:43;2.42;;;1.90;;
12048;SDS011;6085;49.452;8.502;2022-10-16T03:25:45;3.38;;;2.13;;
12048;SDS011;6085;49.452;8.502;2022-10-16T03:29:47;2.35;;;2.15;;
12048;SDS011;6085;49.452;8.502;2022-10-16T03:33:48;4.22;;;2.10;;
12048;SDS011;6085;49.452;8.502;2022-10-16T03:37:51;2.85;;;1.90;;
12048;SDS011;6085;49.452;8.502;2022-10-16T03:41:53;2.03;;;1.92;;
12048;SDS011;6085;49.452;8.502;2022-10-16T03:45:55;2.63;;;1.85;;
12048;SDS011;6085;49.452;8.502;2022-10-16T03:49:57;1.98;;;1.88;;
12048;SDS011;6085;49.452;8.502;2022-10-16T03:54:00;2.55;;;1.90;;
12048;SDS011;6085;49.452;8.502;2022-10-16T03:58:02;4.95;;;2.20;;
12048;SDS011;6085;49.452;8.502;2022-10-16T04:02:03;4.13;;;2.10;;
12048;SDS011;6085;49.452;8.502;2022-10-16T04:06:05;3.33;;;2.40;;
12048;SDS011;6085;49.452;8.502;2022-10-16T04:10:09;5.60;;;2.88;;
12048;SDS011;6085;49.452;8.502;2022-10-16T04:14:11;2.45;;;2.28;;
12048;SDS011;6085;49.452;8.502;2022-10-16T04:18:12;4.20;;;2.65;;
12048;SDS011;6085;49.452;8.502;2022-10-16T04:22:14;2.95;;;2.67;;
12048;SDS011;6085;49.452;8.502;2022-10-16T04:26:17;2.78;;;2.35;;
12048;SDS011;6085;49.452;8.502;2022-10-16T04:30:19;2.58;;;2.22;;
12048;SDS011;6085;49.452;8.502;2022-10-16T04:34:21;2.40;;;2.20;;
12048;SDS011;6085;49.452;8.502;2022-10-16T04:38:23;2.53;;;2.33;;
12048;SDS011;6085;49.452;8.502;2022-10-16T04:42:26;2.10;;;2.00;;
12048;SDS011;6085;49.452;8.502;2022-10-16T04:46:28;2.67;;;2.13;;
12048;SDS011;6085;49.452;8.502;2022-10-16T04:50:30;3.35;;;2.45;;
12048;SDS011;6085;49.452;8.502;2022-10-16T04:54:32;3.38;;;2.22;;
12048;SDS011;6085;49.452;8.502;2022-10-16T04:58:35;2.35;;;2.25;;
12048;SDS011;6085;49.452;8.502;2022-10-16T05:02:37;3.92;;;2.45;;
12048;SDS011;6085;49.452;8.502;2022-10-16T05:06:38;2.75;;;2.20;;
12048;SDS011;6085;49.452;8.502;2022-10-16T05:10:40;2.97;;;2.75;;
12048;SDS011;6085;49.452;8.502;2022-10-16T05:14:45;4.03;;;2.60;;
12048;SDS011;6085;49.452;8.502;2022-10-16T05:18:46;5.00;;;2.30;;
12048;SDS011;6085;49.452;8.502;2022-10-16T05:22:48;2.60;;;2.40;;
12048;SDS011;6085;49.452;8.502;2022-10-16T05:26:50;3.15;;;2.50;;
12048;SDS011;6085;49.452;8.502;2022-10-16T05:30:53;2.55;;;2.30;;
12048;SDS011;6085;49.452;8.502;2022-10-16T05:34:55;3.22;;;1.92;;
12048;SDS011;6085;49.452;8.502;2022-10-16T05:38:59;3.60;;;2.00;;
12048;SDS011;6085;49.452;8.502;2022-10-16T05:43:01;3.17;;;2.30;;
12048;SDS011;6085;49.452;8.502;2022-10-16T05:47:04;2.30;;;1.73;;
12048;SDS011;6085;49.452;8.502;2022-10-16T05:51:06;2.85;;;1.75;;
12048;SDS011;6085;49.452;8.502;2022-10-16T05:55:10;2.67;;;1.85;;
12048;SDS011;6085;49.452;8.502;2022-10-16T05:59:12;2.45;;;2.00;;
12048;SDS011;6085;49.452;8.502;2022-10-16T06:03:15;1.90;;;1.70;;
12048;SDS011;6085;49.452;8.502;2022-10-16T06:07:17;2.00;;;1.90;;
12048;SDS011;6085;49.452;8.502;2022-10-16T06:11:19;2.67;;;2.00;;
12048;SDS011;6085;49.452;8.502;2022-10-16T06:15:22;1.70;;;1.60;;
12048;SDS011;6085;49.452;8.502;2022-10-16T06:19:26;2.45;;;1.70;;
12048;SDS011;6085;49.452;8.502;2022-10-16T06:23:28;2.40;;;1.52;;
12048;SDS011;6085;49.452;8.502;2022-10-16T06:27:30;1.92;;;1.70;;
12048;SDS011;6085;49.452;8.502;2022-10-16T06:31:32;2.30;;;1.70;;
12048;SDS011;6085;49.452;8.502;2022-10-16T06:35:35;1.77;;;1.50;;
12048;SDS011;6085;49.452;8.502;2022-10-16T06:39:37;2.03;;;1.88;;
12048;SDS011;6085;49.452;8.502;2022-10-16T06:43:39;2.50;;;1.95;;
12048;SDS011;6085;49.452;8.502;2022-10-16T06:47:41;5.43;;;2.00;;
12048;SDS011;6085;49.452;8.502;2022-10-16T06:51:44;3.15;;;1.90;;
12048;SDS011;6085;49.452;8.502;2022-10-16T06:55:46;3.13;;;1.88;;
12048;SDS011;6085;49.452;8.502;2022-10-16T06:59:48;2.13;;;1.58;;
12048;SDS011;6085;49.452;8.502;2022-10-16T07:03:50;3.40;;;1.67;;
12048;SDS011;6085;49.452;8.502;2022-10-16T07:07:53;4.20;;;1.77;;
12048;SDS011;6085;49.452;8.502;2022-10-16T07:11:55;2.88;;;2.10;;
12048;SDS011;6085;49.452;8.502;2022-10-16T07:15:57;1.92;;;1.83;;
12048;SDS011;6085;49.452;8.502;2022-10-16T07:19:59;3.20;;;2.17;;
12048;SDS011;6085;49.452;8.502;2022-10-16T07:24:02;2.95;;;2.10;;
12048;SDS011;6085;49.452;8.502;2022-10-16T07:28:06;3.00;;;1.80;;
12048;SDS011;6085;49.452;8.502;2022-10-16T07:32:09;3.28;;;1.92;;
12048;SDS011;6085;49.452;8.502;2022-10-16T07:36:11;1.90;;;1.80;;
12048;SDS011;6085;49.452;8.502;2022-10-16T07:40:14;2.20;;;2.10;;
12048;SDS011;6085;49.452;8.502;2022-10-16T07:44:16;2.67;;;2.00;;
12048;SDS011;6085;49.452;8.502;2022-10-16T07:48:18;2.05;;;1.88;;
12048;SDS011;6085;49.452;8.502;2022-10-16T07:52:20;2.03;;;1.80;;
12048;SDS011;6085;49.452;8.502;2022-10-16T07:56:24;2.78;;;1.60;;
12048;SDS011;6085;49.452;8.502;2022-10-16T08:00:25;1.63;;;1.48;;
12048;SDS011;6085;49.452;8.502;2022-10-16T08:04:27;1.98;;;1.60;;
12048;SDS011;6085;49.452;8.502;2022-10-16T08:08:29;1.80;;;1.45;;
12048;SDS011;6085;49.452;8.502;2022-10-16T08:12:32;2.05;;;1.80;;
12048;SDS011;6085;49.452;8.502;2022-10-16T08:16:34;2.35;;;1.70;;
12048;SDS011;6085;49.452;8.502;2022-10-16T08:20:36;2.15;;;1.92;;
12048;SDS011;6085;49.452;8.502;2022-10-16T08:24:38;2.80;;;2.17;;
12048;SDS011;6085;49.452;8.502;2022-10-16T08:28:41;2.38;;;2.20;;
12048;SDS011;6085;49.452;8.502;2022-10-16T08:32:43;5.10;;;2.88;;
12048;SDS011;6085;49.452;8.502;2022-10-16T08:36:45;2.60;;;2.38;;
12048;SDS011;6085;49.452;8.502;2022-10-16T08:40:47;2.45;;;2.25;;
12048;SDS011;6085;49.452;8.502;2022-10-16T08:45:01;3.70;;;2.40;;
12048;SDS011;6085;49.452;8.502;2022-10-16T08:49:13;1.95;;;1.70;;
12048;SDS011;6085;49.452;8.502;2022-10-16T08:53:17;2.63;;;2.22;;
12048;SDS011;6085;49.452;8.502;2022-10-16T08:57:24;2.00;;;1.80;;
12048;SDS011;6085;49.452;8.502;2022-10-16T09:01:33;2.58;;;2.03;;
12048;SDS011;6085;49.452;8.502;2022-10-16T09:10:32;2.20;;;1.90;;
12048;SDS011;6085;49.452;8.502;2022-10-16T09:14:47;2.20;;;1.80;;
12048;SDS011;6085;49.452;8.502;2022-10-16T09:19:01;2.05;;;1.85;;
12048;SDS011;6085;49.452;8.502;2022-10-16T09:23:12;1.60;;;1.50;;
12048;SDS011;6085;49.452;8.502;2022-10-16T09:27:18;2.25;;;1.75;;
12048;SDS011;6085;49.452;8.502;2022-10-16T09:31:20;2.88;;;1.80;;
12048;SDS011;6085;49.452;8.502;2022-10-16T09:35:26;1.77;;;1.60;;
12048;SDS011;6085;49.452;8.502;2022-10-16T09:39:43;2.35;;;1.92;;
12048;SDS011;6085;49.452;8.502;2022-10-16T09:43:46;3.90;;;2.00;;
12048;SDS011;6085;49.452;8.502;2022-10-16T09:47:51;4.60;;;3.17;;
12048;SDS011;6085;49.452;8.502;2022-10-16T09:52:03;2.78;;;2.40;;
12048;SDS011;6085;49.452;8.502;2022-10-16T09:56:06;2.20;;;2.00;;
12048;SDS011;6085;49.452;8.502;2022-10-16T10:00:09;2.88;;;1.30;;
12048;SDS011;6085;49.452;8.502;2022-10-16T10:04:11;1.85;;;1.75;;
12048;SDS011;6085;49.452;8.502;2022-10-16T10:08:15;1.52;;;1.42;;
12048;SDS011;6085;49.452;8.502;2022-10-16T10:12:20;1.20;;;1.10;;
12048;SDS011;6085;49.452;8.502;2022-10-16T10:16:23;3.15;;;1.60;;
12048;SDS011;6085;49.452;8.502;2022-10-16T10:20:26;2.05;;;1.60;;
12048;SDS011;6085;49.452;8.502;2022-10-16T10:24:31;1.67;;;1.52;;
12048;SDS011;6085;49.452;8.502;2022-10-16T10:28:42;3.35;;;1.80;;
12048;SDS011;6085;49.452;8.502;2022-10-16T10:33:00;1.70;;;1.60;;
12048;SDS011;6085;49.452;8.502;2022-10-16T10:37:16;2.10;;;1.45;;
12048;SDS011;6085;49.452;8.502;2022-10-16T10:41:44;2.00;;;1.60;;
12048;SDS011;6085;49.452;8.502;2022-10-16T10:46:00;1.98;;;1.60;;
12048;SDS011;6085;49.452;8.502;2022-10-16T10:50:07;1.70;;;1.60;;
12048;SDS011;6085;49.452;8.502;2022-10-16T10:54:17;2.45;;;1.50;;
12048;SDS011;6085;49.452;8.502;2022-10-16T10:58:29;1.80;;;1.70;;
12048;SDS011;6085;49.452;8.502;2022-10-16T11:02:58;2.17;;;1.70;;
12048;SDS011;6085;49.452;8.502;2022-10-16T11:07:11;1.77;;;1.67;;
12048;SDS011;6085;49.452;8.502;2022-10-16T11:11:19;2.50;;;1.50;;
12048;SDS011;6085;49.452;8.502;2022-10-16T11:15:29;2.22;;;2.03;;
12048;SDS011;6085;49.452;8.502;2022-10-16T11:19:35;2.22;;;2.00;;
12048;SDS011;6085;49.452;8.502;2022-10-16T11:23:43;2.33;;;1.90;;
12048;SDS011;6085;49.452;8.502;2022-10-16T11:27:51;2.22;;;1.73;;
12048;SDS011;6085;49.452;8.502;2022-10-16T11:31:59;2.45;;;1.45;;
12048;SDS011;6085;49.452;8.502;2022-10-16T11:36:10;2.30;;;1.42;;
12048;SDS011;6085;49.452;8.502;2022-10-16T11:40:17;1.58;;;1.48;;
12048;SDS011;6085;49.452;8.502;2022-10-16T11:44:34;3.10;;;1.70;;
12048;SDS011;6085;49.452;8.502;2022-10-16T11:48:48;2.22;;;1.65;;
12048;SDS011;6085;49.452;8.502;2022-10-16T11:52:55;1.92;;;1.60;;
12048;SDS011;6085;49.452;8.502;2022-10-16T11:57:03;2.88;;;1.60;;
12048;SDS011;6085;49.452;8.502;2022-10-16T12:01:15;1.73;;;1.63;;
12048;SDS011;6085;49.452;8.502;2022-10-16T12:05:26;1.92;;;1.63;;
12048;SDS011;6085;49.452;8.502;2022-10-16T12:09:36;2.00;;;1.90;;
12048;SDS011;6085;49.452;8.502;2022-10-16T12:13:40;1.85;;;1.73;;
12048;SDS011;6085;49.452;8.502;2022-10-16T12:17:42;2.47;;;1.48;;
12048;SDS011;6085;49.452;8.502;2022-10-16T12:21:46;1.77;;;1.63;;
12048;SDS011;6085;49.452;8.502;2022-10-16T12:25:53;1.77;;;1.67;;
12048;SDS011;6085;49.452;8.502;2022-10-16T12:29:56;1.80;;;1.70;;
12048;SDS011;6085;49.452;8.502;2022-10-16T12:34:01;1.67;;;1.58;;
12048;SDS011;6085;49.452;8.502;2022-10-16T12:38:12;2.00;;;1.80;;
12048;SDS011;6085;49.452;8.502;2022-10-16T12:42:22;2.00;;;1.90;;
12048;SDS011;6085;49.452;8.502;2022-10-16T12:46:37;2.45;;;1.80;;
12048;SDS011;6085;49.452;8.502;2022-10-16T12:50:40;3.75;;;1.75;;
12048;SDS011;6085;49.452;8.502;2022-10-16T12:54:43;3.35;;;1.80;;
12048;SDS011;6085;49.452;8.502;2022-10-16T12:58:49;3.30;;;2.47;;
12048;SDS011;6085;49.452;8.502;2022-10-16T13:03:16;2.05;;;1.92;;
12048;SDS011;6085;49.452;8.502;2022-10-16T13:07:49;2.22;;;1.60;;
12048;SDS011;6085;49.452;8.502;2022-10-16T13:16:28;1.90;;;1.25;;
12048;SDS011;6085;49.452;8.502;2022-10-16T13:20:40;2.00;;;1.60;;
12048;SDS011;6085;49.452;8.502;2022-10-16T13:24:58;3.45;;;1.70;;
12048;SDS011;6085;49.452;8.502;2022-10-16T13:29:12;1.73;;;1.60;;
12048;SDS011;6085;49.452;8.502;2022-10-16T13:33:15;1.92;;;1.70;;
12048;SDS011;6085;49.452;8.502;2022-10-16T13:37:20;2.85;;;1.80;;
12048;SDS011;6085;49.452;8.502;2022-10-16T13:41:23;2.97;;;1.80;;
12048;SDS011;6085;49.452;8.502;2022-10-16T13:45:27;2.47;;;1.85;;
12048;SDS011;6085;49.452;8.502;2022-10-16T13:49:29;1.95;;;1.80;;
12048;SDS011;6085;49.452;8.502;2022-10-16T13:53:31;2.08;;;1.88;;
12048;SDS011;6085;49.452;8.502;2022-10-16T13:57:34;2.67;;;1.90;;
12048;SDS011;6085;49.452;8.502;2022-10-16T14:01:41;2.00;;;1.90;;
12048;SDS011;6085;49.452;8.502;2022-10-16T14:05:44;3.17;;;1.60;;
12048;SDS011;6085;49.452;8.502;2022-10-16T14:09:49;2.65;;;1.58;;
12048;SDS011;6085;49.452;8.502;2022-10-16T14:13:52;2.92;;;1.80;;
12048;SDS011;6085;49.452;8.502;2022-10-16T14:17:56;2.97;;;1.65;;
12048;SDS011;6085;49.452;8.502;2022-10-16T14:21:59;1.73;;;1.60;;
12048;SDS011;6085;49.452;8.502;2022-10-16T14:30:23;3.85;;;1.75;;
12048;SDS011;6085;49.452;8.502;2022-10-16T14:34:27;3.08;;;1.90;;
12048;SDS011;6085;49.452;8.502;2022-10-16T14:38:32;2.25;;;2.05;;
12048;SDS011;6085;49.452;8.502;2022-10-16T14:42:34;2.45;;;1.90;;
12048;SDS011;6085;49.452;8.502;2022-10-16T14:46:37;2.17;;;1.85;;
12048;SDS011;6085;49.452;8.502;2022-10-16T14:50:42;1.75;;;1.60;;
12048;SDS011;6085;49.452;8.502;2022-10-16T14:54:43;1.70;;;1.50;;
12048;SDS011;6085;49.452;8.502;2022-10-16T14:58:50;1.90;;;1.70;;
12048;SDS011;6085;49.452;8.502;2022-10-16T15:02:53;4.03;;;1.90;;
12048;SDS011;6085;49.452;8.502;2022-10-16T15:06:56;1.88;;;1.77;;
12048;SDS011;6085;49.452;8.502;2022-10-16T15:10:58;1.88;;;1.65;;
12048;SDS011;6085;49.452;8.502;2022-10-16T15:14:59;2.67;;;1.73;;
12048;SDS011;6085;49.452;8.502;2022-10-16T15:19:01;3.08;;;1.60;;
12048;SDS011;6085;49.452;8.502;2022-10-16T15:23:06;1.77;;;1.67;;
12048;SDS011;6085;49.452;8.502;2022-10-16T15:27:11;2.35;;;1.63;;
12048;SDS011;6085;49.452;8.502;2022-10-16T15:31:13;1.75;;;1.65;;
12048;SDS011;6085;49.452;8.502;2022-10-16T15:35:15;2.60;;;1.70;;
12048;SDS011;6085;49.452;8.502;2022-10-16T15:39:19;2.25;;;1.73;;
12048;SDS011;6085;49.452;8.502;2022-10-16T15:43:21;2.35;;;1.70;;
12048;SDS011;6085;49.452;8.502;2022-10-16T15:47:23;2.03;;;1.80;;
12048;SDS011;6085;49.452;8.502;2022-10-16T15:51:25;2.10;;;1.90;;
12048;SDS011;6085;49.452;8.502;2022-10-16T15:55:30;2.35;;;1.70;;
12048;SDS011;6085;49.452;8.502;2022-10-16T15:59:32;2.63;;;1.58;;
12048;SDS011;6085;49.452;8.502;2022-10-16T16:03:34;3.70;;;1.60;;
12048;SDS011;6085;49.452;8.502;2022-10-16T16:07:36;3.03;;;1.88;;
12048;SDS011;6085;49.452;8.502;2022-10-16T16:11:41;4.35;;;2.08;;
12048;SDS011;6085;49.452;8.502;2022-10-16T16:15:42;2.30;;;1.90;;
12048;SDS011;6085;49.452;8.502;2022-10-16T16:19:45;3.78;;;1.73;;
12048;SDS011;6085;49.452;8.502;2022-10-16T16:23:47;2.20;;;2.00;;
12048;SDS011;6085;49.452;8.502;2022-10-16T16:27:50;2.83;;;2.10;;
12048;SDS011;6085;49.452;8.502;2022-10-16T16:31:51;2.33;;;2.10;;
12048;SDS011;6085;49.452;8.502;2022-10-16T16:35:57;2.60;;;2.40;;
12048;SDS011;6085;49.452;8.502;2022-10-16T16:39:59;5.28;;;2.72;;
12048;SDS011;6085;49.452;8.502;2022-10-16T16:44:04;3.30;;;2.83;;
12048;SDS011;6085;49.452;8.502;2022-10-16T16:48:07;4.22;;;2.97;;
12048;SDS011;6085;49.452;8.502;2022-10-16T16:52:09;4.82;;;3.25;;
12048;SDS011;6085;49.452;8.502;2022-10-16T16:56:11;4.32;;;3.10;;
12048;SDS011;6085;49.452;8.502;2022-10-16T17:00:15;2.78;;;2.58;;
12048;SDS011;6085;49.452;8.502;2022-10-16T17:04:17;3.75;;;3.30;;
12048;SDS011;6085;49.452;8.502;2022-10-16T17:08:19;4.63;;;3.42;;
12048;SDS011;6085;49.452;8.502;2022-10-16T17:12:21;3.25;;;2.95;;
12048;SDS011;6085;49.452;8.502;2022-10-16T17:16:25;3.17;;;2.92;;
12048;SDS011;6085;49.452;8.502;2022-10-16T17:20:28;2.97;;;2.70;;
12048;SDS011;6085;49.452;8.502;2022-10-16T17:24:30;2.80;;;2.60;;
12048;SDS011;6085;49.452;8.502;2022-10-16T17:28:32;3.03;;;2.70;;
12048;SDS011;6085;49.452;8.502;2022-10-16T17:32:35;2.92;;;2.60;;
12048;SDS011;6085;49.452;8.502;2022-10-16T17:36:37;6.15;;;3.00;;
12048;SDS011;6085;49.452;8.502;2022-10-16T17:40:42;2.78;;;2.35;;
12048;SDS011;6085;49.452;8.502;2022-10-16T17:44:44;3.00;;;2.60;;
12048;SDS011;6085;49.452;8.502;2022-10-16T17:48:48;2.90;;;2.70;;
12048;SDS011;6085;49.452;8.502;2022-10-16T17:52:53;3.42;;;2.80;;
12048;SDS011;6085;49.452;8.502;2022-10-16T17:56:55;3.08;;;2.78;;
12048;SDS011;6085;49.452;8.502;2022-10-16T18:00:57;3.22;;;2.55;;
12048;SDS011;6085;49.452;8.502;2022-10-16T18:05:00;4.13;;;3.25;;
12048;SDS011;6085;49.452;8.502;2022-10-16T18:09:07;3.95;;;2.95;;
12048;SDS011;6085;49.452;8.502;2022-10-16T18:13:10;3.20;;;2.70;;
12048;SDS011;6085;49.452;8.502;2022-10-16T18:17:12;3.42;;;3.15;;
12048;SDS011;6085;49.452;8.502;2022-10-16T18:21:17;4.07;;;3.20;;
12048;SDS011;6085;49.452;8.502;2022-10-16T18:25:20;3.30;;;3.00;;
12048;SDS011;6085;49.452;8.502;2022-10-16T18:29:22;3.40;;;2.95;;
12048;SDS011;6085;49.452;8.502;2022-10-16T18:33:24;3.50;;;3.10;;
12048;SDS011;6085;49.452;8.502;2022-10-16T18:37:28;5.50;;;3.22;;
12048;SDS011;6085;49.452;8.502;2022-10-16T18:41:30;3.97;;;3.45;;
12048;SDS011;6085;49.452;8.502;2022-10-16T18:45:32;2.90;;;2.60;;
12048;SDS011;6085;49.452;8.502;2022-10-16T18:49:34;3.47;;;2.95;;
12048;SDS011;6085;49.452;8.502;2022-10-16T18:53:38;3.63;;;2.85;;
12048;SDS011;6085;49.452;8.502;2022-10-16T18:57:41;2.80;;;2.60;;
12048;SDS011;6085;49.452;8.502;2022-10-16T19:01:43;3.00;;;2.70;;
12048;SDS011;6085;49.452;8.502;2022-10-16T19:05:46;7.53;;;6.80;;
12048;SDS011;6085;49.452;8.502;2022-10-16T19:09:49;9.88;;;6.72;;
12048;SDS011;6085;49.452;8.502;2022-10-16T19:13:51;10.90;;;7.78;;
12048;SDS011;6085;49.452;8.502;2022-10-16T19:17:54;5.93;;;5.32;;
12048;SDS011;6085;49.452;8.502;2022-10-16T19:21:56;4.57;;;3.40;;
12048;SDS011;6085;49.452;8.502;2022-10-16T19:26:12;4.93;;;4.13;;
12048;SDS011;6085;49.452;8.502;2022-10-16T19:30:16;5.30;;;4.00;;
12048;SDS011;6085;49.452;8.502;2022-10-16T19:34:18;5.95;;;3.90;;
12048;SDS011;6085;49.452;8.502;2022-10-16T19:38:20;5.85;;;4.40;;
12048;SDS011;6085;49.452;8.502;2022-10-16T19:42:23;10.55;;;5.65;;
12048;SDS011;6085;49.452;8.502;2022-10-16T19:46:26;10.23;;;7.93;;
12048;SDS011;6085;49.452;8.502;2022-10-16T19:50:28;14.25;;;7.90;;
12048;SDS011;6085;49.452;8.502;2022-10-16T19:54:29;9.43;;;6.93;;
12048;SDS011;6085;49.452;8.502;2022-10-16T19:58:33;9.68;;;6.90;;
12048;SDS011;6085;49.452;8.502;2022-10-16T20:02:35;8.70;;;6.57;;
12048;SDS011;6085;49.452;8.502;2022-10-16T20:06:37;7.32;;;6.07;;
12048;SDS011;6085;49.452;8.502;2022-10-16T20:10:40;9.32;;;6.85;;
12048;SDS011;6085;49.452;8.502;2022-10-16T20:14:49;11.45;;;7.90;;
12048;SDS011;6085;49.452;8.502;2022-10-16T20:18:51;11.23;;;8.20;;
12048;SDS011;6085;49.452;8.502;2022-10-16T20:22:53;12.32;;;8.77;;
12048;SDS011;6085;49.452;8.502;2022-10-16T20:26:55;11.50;;;8.82;;
12048;SDS011;6085;49.452;8.502;2022-10-16T20:31:04;11.25;;;7.82;;
12048;SDS011;6085;49.452;8.502;2022-10-16T20:35:07;10.20;;;7.60;;
12048;SDS011;6085;49.452;8.502;2022-10-16T20:39:09;8.88;;;7.45;;
12048;SDS011;6085;49.452;8.502;2022-10-16T20:43:13;9.40;;;7.03;;
12048;SDS011;6085;49.452;8.502;2022-10-16T20:47:17;8.73;;;6.78;;
12048;SDS011;6085;49.452;8.502;2022-10-16T20:51:20;7.47;;;6.25;;
12048;SDS011;6085;49.452;8.502;2022-10-16T20:55:25;7.13;;;6.30;;
12048;SDS011;6085;49.452;8.502;2022-10-16T20:59:27;7.72;;;6.82;;
12048;SDS011;6085;49.452;8.502;2022-10-16T21:03:30;7.55;;;6.75;;
12048;SDS011;6085;49.452;8.502;2022-10-16T21:07:32;8.85;;;6.65;;
12048;SDS011;6085;49.452;8.502;2022-10-16T21:11:34;7.93;;;6.45;;
12048;SDS011;6085;49.452;8.502;2022-10-16T21:15:36;8.73;;;6.60;;
12048;SDS011;6085;49.452;8.502;2022-10-16T21:19:39;8.95;;;6.15;;
12048;SDS011;6085;49.452;8.502;2022-10-16T21:23:41;5.95;;;5.38;;
12048;SDS011;6085;49.452;8.502;2022-10-16T21:27:43;7.95;;;5.40;;
12048;SDS011;6085;49.452;8.502;2022-10-16T21:31:45;7.32;;;5.57;;
12048;SDS011;6085;49.452;8.502;2022-10-16T21:35:49;7.30;;;6.10;;
12048;SDS011;6085;49.452;8.502;2022-10-16T21:39:53;8.43;;;6.57;;
12048;SDS011;6085;49.452;8.502;2022-10-16T21:43:56;9.02;;;5.88;;
12048;SDS011;6085;49.452;8.502;2022-10-16T21:47:58;9.00;;;6.03;;
12048;SDS011;6085;49.452;8.502;2022-10-16T21:52:01;6.53;;;5.70;;
12048;SDS011;6085;49.452;8.502;2022-10-16T21:56:04;5.32;;;4.80;;
12048;SDS011;6085;49.452;8.502;2022-10-16T22:00:12;8.55;;;6.68;;
12048;SDS011;6085;49.452;8.502;2022-10-16T22:04:15;7.93;;;5.95;;
12048;SDS011;6085;49.452;8.502;2022-10-16T22:08:18;6.00;;;5.40;;
12048;SDS011;6085;49.452;8.502;2022-10-16T22:12:20;6.85;;;5.32;;
12048;SDS011;6085;49.452;8.502;2022-10-16T22:16:23;5.82;;;5.20;;
12048;SDS011;6085;49.452;8.502;2022-10-16T22:20:26;5.53;;;4.78;;
12048;SDS011;6085;49.452;8.502;2022-10-16T22:24:29;7.40;;;5.30;;
12048;SDS011;6085;49.452;8.502;2022-10-16T22:28:31;7.70;;;5.25;;
12048;SDS011;6085;49.452;8.502;2022-10-16T22:32:33;5.53;;;4.95;;
12048;SDS011;6085;49.452;8.502;2022-10-16T22:36:35;5.68;;;4.75;;
12048;SDS011;6085;49.452;8.502;2022-10-16T22:40:38;6.22;;;4.95;;
12048;SDS011;6085;49.452;8.502;2022-10-16T22:44:40;5.10;;;4.60;;
12048;SDS011;6085;49.452;8.502;2022-10-16T22:48:42;5.90;;;5.30;;
12048;SDS011;6085;49.452;8.502;2022-10-16T22:52:44;7.05;;;5.47;;
12048;SDS011;6085;49.452;8.502;2022-10-16T22:56:47;5.65;;;4.68;;
12048;SDS011;6085;49.452;8.502;2022-10-16T23:00:49;4.40;;;4.00;;
12048;SDS011;6085;49.452;8.502;2022-10-16T23:04:51;4.45;;;3.67;;
12048;SDS011;6085;49.452;8.502;2022-10-16T23:08:54;4.97;;;4.47;;
12048;SDS011;6085;49.452;8.502;2022-10-16T23:12:58;4.07;;;3.55;;
12048;SDS011;6085;49.452;8.502;2022-10-16T23:17:00;4.15;;;3.75;;
12048;SDS011;6085;49.452;8.502;2022-10-16T23:21:05;5.53;;;4.03;;
12048;SDS011;6085;49.452;8.502;2022-10-16T23:25:08;8.00;;;3.83;;
12048;SDS011;6085;49.452;8.502;2022-10-16T23:29:11;5.45;;;3.53;;
12048;SDS011;6085;49.452;8.502;2022-10-16T23:33:13;4.38;;;3.25;;
12048;SDS011;6085;49.452;8.502;2022-10-16T23:37:15;4.75;;;3.00;;
12048;SDS011;6085;49.452;8.502;2022-10-16T23:41:17;4.47;;;3.38;;
12048;SDS011;6085;49.452;8.502;2022-10-16T23:45:21;4.00;;;3.03;;
12048;SDS011;6085;49.452;8.502;2022-10-16T23:49:23;3.88;;;3.03;;
12048;SDS011;6085;49.452;8.502;2022-10-16T23:53:24;3.80;;;2.70;;
12048;SDS011;6085;49.452;8.502;2022-10-16T23:57:26;3.00;;;2.80;;
